sensor_id;sensor_type;location;lat;lon;timestamp;pressure;altitude;pressure_sealevel;temperature;humidity
19576;BME280;41589;51.196;7.074;2022-08-03T00:01:45;99006.97;;;24.17;46.69
19576;BME280;41589;51.196;7.074;2022-08-03T00:06:46;99010.16;;;24.13;46.82
19576;BME280;41589;51.196;7.074;2022-08-03T00:11:46;99009.00;;;24.09;46.68
19576;BME280;41589;51.196;7.074;2022-08-03T00:16:47;99002.03;;;24.04;47.05
19576;BME280;41589;51.196;7.074;2022-08-03T00:21:47;98996.84;;;24.03;46.90
19576;BME280;41589;51.196;7.074;2022-08-03T00:26:47;98992.44;;;24.02;47.30
19576;BME280;41589;51.196;7.074;2022-08-03T00:31:48;98996.28;;;24.04;47.20
19576;BME280;41589;51.196;7.074;2022-08-03T00:36:48;98994.13;;;23.97;47.11
19576;BME280;41589;51.196;7.074;2022-08-03T00:41:49;98992.56;;;23.96;47.12
19576;BME280;41589;51.196;7.074;2022-08-03T00:46:49;98995.00;;;23.92;47.11
19576;BME280;41589;51.196;7.074;2022-08-03T00:51:50;98984.44;;;23.87;47.40
19576;BME280;41589;51.196;7.074;2022-08-03T00:56:50;98987.50;;;23.89;47.31
19576;BME280;41589;51.196;7.074;2022-08-03T01:01:52;98982.13;;;23.85;47.45
19576;BME280;41589;51.196;7.074;2022-08-03T01:07:05;98981.13;;;23.83;47.65
19576;BME280;41589;51.196;7.074;2022-08-03T01:12:27;98972.66;;;23.77;47.80
19576;BME280;41589;51.196;7.074;2022-08-03T01:23:02;98977.41;;;23.75;47.95
19576;BME280;41589;51.196;7.074;2022-08-03T01:33:34;98973.09;;;23.68;48.01
19576;BME280;41589;51.196;7.074;2022-08-03T01:38:40;98970.44;;;23.70;47.82
19576;BME280;41589;51.196;7.074;2022-08-03T01:43:44;98968.34;;;23.71;47.81
19576;BME280;41589;51.196;7.074;2022-08-03T01:48:49;98975.19;;;23.68;48.01
19576;BME280;41589;51.196;7.074;2022-08-03T01:53:50;98968.78;;;23.61;48.09
19576;BME280;41589;51.196;7.074;2022-08-03T01:58:55;98967.59;;;23.57;48.35
19576;BME280;41589;51.196;7.074;2022-08-03T02:03:58;98960.09;;;23.54;48.49
19576;BME280;41589;51.196;7.074;2022-08-03T02:09:00;98966.38;;;23.52;48.58
19576;BME280;41589;51.196;7.074;2022-08-03T02:14:03;98963.28;;;23.50;48.21
19576;BME280;41589;51.196;7.074;2022-08-03T02:19:06;98965.19;;;23.48;48.62
19576;BME280;41589;51.196;7.074;2022-08-03T02:24:07;98966.53;;;23.47;48.50
19576;BME280;41589;51.196;7.074;2022-08-03T02:29:14;98963.44;;;23.45;48.50
19576;BME280;41589;51.196;7.074;2022-08-03T02:34:17;98949.97;;;23.40;48.70
19576;BME280;41589;51.196;7.074;2022-08-03T02:39:23;98948.88;;;23.29;49.12
19576;BME280;41589;51.196;7.074;2022-08-03T02:44:26;98952.88;;;23.26;49.18
19576;BME280;41589;51.196;7.074;2022-08-03T02:49:27;98953.75;;;23.21;49.49
19576;BME280;41589;51.196;7.074;2022-08-03T02:54:29;98953.34;;;23.17;49.32
19576;BME280;41589;51.196;7.074;2022-08-03T02:59:31;98954.22;;;23.12;49.69
19576;BME280;41589;51.196;7.074;2022-08-03T03:04:31;98948.50;;;23.12;49.58
19576;BME280;41589;51.196;7.074;2022-08-03T03:09:33;98950.34;;;23.10;49.89
19576;BME280;41589;51.196;7.074;2022-08-03T03:14:35;98956.50;;;23.00;49.87
19576;BME280;41589;51.196;7.074;2022-08-03T03:19:38;98953.66;;;22.87;49.84
19576;BME280;41589;51.196;7.074;2022-08-03T03:24:40;98949.59;;;22.83;50.18
19576;BME280;41589;51.196;7.074;2022-08-03T03:29:42;98951.22;;;22.78;50.14
19576;BME280;41589;51.196;7.074;2022-08-03T03:34:42;98954.44;;;22.74;50.61
19576;BME280;41589;51.196;7.074;2022-08-03T03:39:43;98953.34;;;22.77;50.49
19576;BME280;41589;51.196;7.074;2022-08-03T03:44:43;98950.69;;;22.80;50.48
19576;BME280;41589;51.196;7.074;2022-08-03T03:49:44;98948.91;;;22.76;50.72
19576;BME280;41589;51.196;7.074;2022-08-03T03:54:45;98953.13;;;22.75;50.66
19576;BME280;41589;51.196;7.074;2022-08-03T03:59:45;98958.28;;;22.77;50.74
19576;BME280;41589;51.196;7.074;2022-08-03T04:04:46;98949.59;;;22.83;50.42
19576;BME280;41589;51.196;7.074;2022-08-03T04:10:22;98961.63;;;22.81;50.50
19576;BME280;41589;51.196;7.074;2022-08-03T04:15:46;98957.09;;;22.86;50.65
19576;BME280;41589;51.196;7.074;2022-08-03T04:20:48;98954.44;;;22.88;50.51
19576;BME280;41589;51.196;7.074;2022-08-03T04:25:52;98959.09;;;22.91;50.32
19576;BME280;41589;51.196;7.074;2022-08-03T04:30:56;98961.41;;;22.92;50.30
19576;BME280;41589;51.196;7.074;2022-08-03T04:35:58;98965.47;;;22.97;50.29
19576;BME280;41589;51.196;7.074;2022-08-03T04:40:59;98973.88;;;23.08;50.20
19576;BME280;41589;51.196;7.074;2022-08-03T04:46:01;98978.50;;;23.11;50.29
19576;BME280;41589;51.196;7.074;2022-08-03T04:51:03;98968.25;;;23.16;50.14
19576;BME280;41589;51.196;7.074;2022-08-03T04:56:04;98975.19;;;23.20;50.15
19576;BME280;41589;51.196;7.074;2022-08-03T05:01:05;98973.75;;;23.27;50.48
19576;BME280;41589;51.196;7.074;2022-08-03T05:06:05;98981.00;;;23.41;50.74
19576;BME280;41589;51.196;7.074;2022-08-03T05:11:06;98974.88;;;23.58;49.97
19576;BME280;41589;51.196;7.074;2022-08-03T05:16:07;98972.19;;;23.73;49.64
19576;BME280;41589;51.196;7.074;2022-08-03T05:21:08;98972.72;;;23.85;49.28
19576;BME280;41589;51.196;7.074;2022-08-03T05:26:09;98989.34;;;24.00;48.96
19576;BME280;41589;51.196;7.074;2022-08-03T05:31:11;98978.75;;;24.15;48.83
19576;BME280;41589;51.196;7.074;2022-08-03T05:36:12;98988.19;;;24.37;48.25
19576;BME280;41589;51.196;7.074;2022-08-03T05:41:13;98988.38;;;24.60;47.86
19576;BME280;41589;51.196;7.074;2022-08-03T05:46:13;98976.38;;;24.76;47.46
19576;BME280;41589;51.196;7.074;2022-08-03T05:51:16;98978.31;;;25.02;47.49
19576;BME280;41589;51.196;7.074;2022-08-03T05:56:21;98975.16;;;25.21;46.75
19576;BME280;41589;51.196;7.074;2022-08-03T06:01:22;98984.66;;;25.45;46.06
19576;BME280;41589;51.196;7.074;2022-08-03T06:06:23;98980.13;;;25.65;45.93
19576;BME280;41589;51.196;7.074;2022-08-03T06:11:26;98969.28;;;25.94;45.61
19576;BME280;41589;51.196;7.074;2022-08-03T06:16:29;98985.44;;;26.19;45.14
19576;BME280;41589;51.196;7.074;2022-08-03T06:21:32;98988.75;;;26.39;44.55
19576;BME280;41589;51.196;7.074;2022-08-03T06:26:32;98984.91;;;26.67;43.96
19576;BME280;41589;51.196;7.074;2022-08-03T06:31:41;98993.91;;;26.86;43.87
19576;BME280;41589;51.196;7.074;2022-08-03T06:36:41;98990.28;;;27.01;43.45
19576;BME280;41589;51.196;7.074;2022-08-03T06:41:42;98993.44;;;27.28;43.63
19576;BME280;41589;51.196;7.074;2022-08-03T06:46:42;98990.31;;;27.49;42.78
19576;BME280;41589;51.196;7.074;2022-08-03T06:51:43;98992.66;;;27.35;41.87
19576;BME280;41589;51.196;7.074;2022-08-03T06:56:43;98991.31;;;27.36;42.14
19576;BME280;41589;51.196;7.074;2022-08-03T07:01:44;98994.94;;;27.52;41.50
19576;BME280;41589;51.196;7.074;2022-08-03T07:06:44;98993.31;;;27.66;41.74
19576;BME280;41589;51.196;7.074;2022-08-03T07:11:45;98994.41;;;27.78;41.45
19576;BME280;41589;51.196;7.074;2022-08-03T07:16:45;99001.28;;;27.90;41.12
19576;BME280;41589;51.196;7.074;2022-08-03T07:21:46;99001.53;;;27.85;40.81
19576;BME280;41589;51.196;7.074;2022-08-03T07:26:46;99006.91;;;27.88;41.30
19576;BME280;41589;51.196;7.074;2022-08-03T07:31:52;99007.41;;;28.02;40.23
19576;BME280;41589;51.196;7.074;2022-08-03T07:37:01;99010.69;;;27.99;40.97
19576;BME280;41589;51.196;7.074;2022-08-03T07:42:02;99013.16;;;28.10;40.44
19576;BME280;41589;51.196;7.074;2022-08-03T07:47:02;99008.50;;;28.14;39.75
19576;BME280;41589;51.196;7.074;2022-08-03T07:52:08;99003.75;;;28.34;39.69
19576;BME280;41589;51.196;7.074;2022-08-03T07:57:30;99007.91;;;28.16;39.17
19576;BME280;41589;51.196;7.074;2022-08-03T08:02:33;99002.59;;;28.30;39.50
19576;BME280;41589;51.196;7.074;2022-08-03T08:07:38;99006.38;;;28.40;39.69
19576;BME280;41589;51.196;7.074;2022-08-03T08:12:41;99001.66;;;28.77;39.57
19576;BME280;41589;51.196;7.074;2022-08-03T08:17:55;98997.25;;;28.93;38.39
19576;BME280;41589;51.196;7.074;2022-08-03T08:23:02;99006.56;;;29.09;38.78
19576;BME280;41589;51.196;7.074;2022-08-03T08:28:10;99007.31;;;29.10;37.92
19576;BME280;41589;51.196;7.074;2022-08-03T08:33:29;99004.88;;;29.23;37.66
19576;BME280;41589;51.196;7.074;2022-08-03T08:38:29;99003.06;;;29.45;37.29
19576;BME280;41589;51.196;7.074;2022-08-03T08:43:30;99001.69;;;29.64;37.39
19576;BME280;41589;51.196;7.074;2022-08-03T08:48:30;99003.63;;;29.78;37.39
19576;BME280;41589;51.196;7.074;2022-08-03T08:53:35;99002.78;;;30.12;36.77
19576;BME280;41589;51.196;7.074;2022-08-03T08:58:37;99009.41;;;30.59;35.52
19576;BME280;41589;51.196;7.074;2022-08-03T09:03:41;99014.78;;;30.63;35.25
19576;BME280;41589;51.196;7.074;2022-08-03T09:08:41;99017.94;;;30.84;36.00
19576;BME280;41589;51.196;7.074;2022-08-03T09:13:42;99012.19;;;31.52;34.98
19576;BME280;41589;51.196;7.074;2022-08-03T09:18:49;99010.81;;;31.72;34.19
19576;BME280;41589;51.196;7.074;2022-08-03T09:23:52;99016.47;;;31.80;33.25
19576;BME280;41589;51.196;7.074;2022-08-03T09:28:55;99008.63;;;31.82;33.58
19576;BME280;41589;51.196;7.074;2022-08-03T09:33:56;99016.28;;;31.97;32.91
19576;BME280;41589;51.196;7.074;2022-08-03T09:39:05;99008.53;;;32.40;32.74
19576;BME280;41589;51.196;7.074;2022-08-03T09:44:06;99005.97;;;32.87;31.96
19576;BME280;41589;51.196;7.074;2022-08-03T09:49:10;99000.53;;;33.03;31.66
19576;BME280;41589;51.196;7.074;2022-08-03T09:54:11;99004.06;;;33.01;31.59
19576;BME280;41589;51.196;7.074;2022-08-03T09:59:21;98998.50;;;33.27;30.35
19576;BME280;41589;51.196;7.074;2022-08-03T10:04:22;98996.84;;;33.24;30.34
19576;BME280;41589;51.196;7.074;2022-08-03T10:09:23;99001.56;;;33.29;30.97
19576;BME280;41589;51.196;7.074;2022-08-03T10:14:24;98997.97;;;33.40;29.39
19576;BME280;41589;51.196;7.074;2022-08-03T10:19:33;99001.00;;;32.99;29.94
19576;BME280;41589;51.196;7.074;2022-08-03T10:24:39;98992.69;;;33.06;30.43
19576;BME280;41589;51.196;7.074;2022-08-03T10:30:14;98985.53;;;33.18;29.54
19576;BME280;41589;51.196;7.074;2022-08-03T10:36:10;98971.84;;;33.21;30.79
19576;BME280;41589;51.196;7.074;2022-08-03T10:41:20;98973.28;;;33.86;29.36
19576;BME280;41589;51.196;7.074;2022-08-03T10:46:27;98971.19;;;33.65;29.13
19576;BME280;41589;51.196;7.074;2022-08-03T10:52:06;98967.00;;;33.35;29.28
19576;BME280;41589;51.196;7.074;2022-08-03T10:57:40;98960.19;;;32.99;30.09
19576;BME280;41589;51.196;7.074;2022-08-03T11:08:30;98953.84;;;32.91;29.25
19576;BME280;41589;51.196;7.074;2022-08-03T11:13:30;98947.50;;;32.95;30.88
19576;BME280;41589;51.196;7.074;2022-08-03T11:18:32;98939.47;;;33.05;30.07
19576;BME280;41589;51.196;7.074;2022-08-03T11:28:44;98941.22;;;32.67;30.67
19576;BME280;41589;51.196;7.074;2022-08-03T11:39:12;98935.25;;;32.44;31.01
19576;BME280;41589;51.196;7.074;2022-08-03T11:44:38;98942.41;;;32.53;30.85
19576;BME280;41589;51.196;7.074;2022-08-03T11:50:05;98943.22;;;32.43;30.76
19576;BME280;41589;51.196;7.074;2022-08-03T11:55:09;98947.25;;;32.29;31.28
19576;BME280;41589;51.196;7.074;2022-08-03T12:00:24;98940.38;;;32.24;30.70
19576;BME280;41589;51.196;7.074;2022-08-03T12:05:37;98941.91;;;32.25;31.00
19576;BME280;41589;51.196;7.074;2022-08-03T12:10:39;98936.16;;;32.37;30.91
19576;BME280;41589;51.196;7.074;2022-08-03T12:15:40;98931.00;;;32.26;31.31
19576;BME280;41589;51.196;7.074;2022-08-03T12:20:42;98929.09;;;32.50;31.29
19576;BME280;41589;51.196;7.074;2022-08-03T12:25:43;98926.44;;;32.54;30.56
19576;BME280;41589;51.196;7.074;2022-08-03T12:30:49;98929.44;;;32.65;29.78
19576;BME280;41589;51.196;7.074;2022-08-03T12:36:07;98918.28;;;32.62;30.67
19576;BME280;41589;51.196;7.074;2022-08-03T12:41:09;98919.03;;;32.62;30.67
19576;BME280;41589;51.196;7.074;2022-08-03T12:46:17;98919.66;;;32.82;30.07
19576;BME280;41589;51.196;7.074;2022-08-03T12:51:18;98920.91;;;33.00;30.31
19576;BME280;41589;51.196;7.074;2022-08-03T12:56:18;98924.00;;;33.03;28.99
19576;BME280;41589;51.196;7.074;2022-08-03T13:01:20;98913.69;;;33.01;29.70
19576;BME280;41589;51.196;7.074;2022-08-03T13:06:23;98908.44;;;32.88;29.48
19576;BME280;41589;51.196;7.074;2022-08-03T13:11:26;98912.81;;;32.99;28.89
19576;BME280;41589;51.196;7.074;2022-08-03T13:16:27;98917.84;;;33.20;28.85
19576;BME280;41589;51.196;7.074;2022-08-03T13:21:27;98916.59;;;33.44;28.34
19576;BME280;41589;51.196;7.074;2022-08-03T13:26:27;98902.66;;;33.54;28.05
19576;BME280;41589;51.196;7.074;2022-08-03T13:31:28;98910.16;;;33.69;27.56
19576;BME280;41589;51.196;7.074;2022-08-03T13:36:28;98903.44;;;33.67;27.44
19576;BME280;41589;51.196;7.074;2022-08-03T13:41:28;98901.66;;;33.73;28.25
19576;BME280;41589;51.196;7.074;2022-08-03T13:46:29;98898.19;;;33.53;27.38
19576;BME280;41589;51.196;7.074;2022-08-03T13:51:29;98891.09;;;33.45;28.13
19576;BME280;41589;51.196;7.074;2022-08-03T13:56:30;98888.44;;;33.49;28.16
19576;BME280;41589;51.196;7.074;2022-08-03T14:01:30;98880.56;;;33.51;27.97
19576;BME280;41589;51.196;7.074;2022-08-03T14:06:31;98877.53;;;33.61;27.29
19576;BME280;41589;51.196;7.074;2022-08-03T14:11:32;98866.66;;;33.73;26.94
19576;BME280;41589;51.196;7.074;2022-08-03T14:16:33;98872.38;;;33.83;26.83
19576;BME280;41589;51.196;7.074;2022-08-03T14:21:33;98868.13;;;33.96;26.47
19576;BME280;41589;51.196;7.074;2022-08-03T14:26:34;98853.38;;;33.94;27.37
19576;BME280;41589;51.196;7.074;2022-08-03T14:31:35;98858.06;;;33.99;27.26
19576;BME280;41589;51.196;7.074;2022-08-03T14:36:36;98857.81;;;34.06;27.10
19576;BME280;41589;51.196;7.074;2022-08-03T14:41:36;98845.22;;;34.15;25.65
19576;BME280;41589;51.196;7.074;2022-08-03T14:46:37;98838.78;;;34.17;27.22
19576;BME280;41589;51.196;7.074;2022-08-03T14:51:37;98835.19;;;34.30;25.69
19576;BME280;41589;51.196;7.074;2022-08-03T14:56:37;98836.47;;;34.27;26.23
19576;BME280;41589;51.196;7.074;2022-08-03T15:01:38;98831.91;;;34.12;25.93
19576;BME280;41589;51.196;7.074;2022-08-03T15:06:38;98825.09;;;33.96;26.31
19576;BME280;41589;51.196;7.074;2022-08-03T15:11:38;98827.84;;;33.94;26.77
19576;BME280;41589;51.196;7.074;2022-08-03T15:16:39;98828.63;;;34.06;27.30
19576;BME280;41589;51.196;7.074;2022-08-03T15:21:39;98826.56;;;34.21;26.07
19576;BME280;41589;51.196;7.074;2022-08-03T15:26:40;98826.31;;;34.05;25.88
19576;BME280;41589;51.196;7.074;2022-08-03T15:31:40;98808.56;;;34.01;27.21
19576;BME280;41589;51.196;7.074;2022-08-03T15:36:41;98805.88;;;33.81;26.79
19576;BME280;41589;51.196;7.074;2022-08-03T15:41:41;98799.94;;;33.68;26.88
19576;BME280;41589;51.196;7.074;2022-08-03T15:46:41;98806.50;;;33.56;27.03
19576;BME280;41589;51.196;7.074;2022-08-03T15:51:42;98792.56;;;33.55;28.09
19576;BME280;41589;51.196;7.074;2022-08-03T15:56:42;98794.06;;;33.44;27.61
19576;BME280;41589;51.196;7.074;2022-08-03T16:01:45;98794.00;;;33.21;27.45
19576;BME280;41589;51.196;7.074;2022-08-03T16:06:46;98794.00;;;33.21;27.42
19576;BME280;41589;51.196;7.074;2022-08-03T16:11:46;98794.81;;;33.00;27.95
19576;BME280;41589;51.196;7.074;2022-08-03T16:16:46;98795.13;;;32.83;27.74
19576;BME280;41589;51.196;7.074;2022-08-03T16:21:47;98794.16;;;32.68;28.46
19576;BME280;41589;51.196;7.074;2022-08-03T16:26:47;98791.88;;;32.67;28.25
19576;BME280;41589;51.196;7.074;2022-08-03T16:31:47;98796.28;;;32.56;28.06
19576;BME280;41589;51.196;7.074;2022-08-03T16:36:48;98789.75;;;32.46;28.09
19576;BME280;41589;51.196;7.074;2022-08-03T16:41:48;98791.16;;;32.45;28.20
19576;BME280;41589;51.196;7.074;2022-08-03T16:46:48;98795.03;;;32.38;28.58
19576;BME280;41589;51.196;7.074;2022-08-03T16:51:49;98786.13;;;32.36;28.13
19576;BME280;41589;51.196;7.074;2022-08-03T16:56:49;98788.47;;;32.28;28.47
19576;BME280;41589;51.196;7.074;2022-08-03T17:01:50;98789.16;;;32.16;28.81
19576;BME280;41589;51.196;7.074;2022-08-03T17:06:50;98791.59;;;31.99;28.33
19576;BME280;41589;51.196;7.074;2022-08-03T17:11:51;98782.56;;;31.95;29.31
19576;BME280;41589;51.196;7.074;2022-08-03T17:16:52;98786.63;;;31.80;28.84
19576;BME280;41589;51.196;7.074;2022-08-03T17:22:04;98779.94;;;31.68;29.10
19576;BME280;41589;51.196;7.074;2022-08-03T17:27:14;98795.25;;;31.68;28.78
19576;BME280;41589;51.196;7.074;2022-08-03T17:32:16;98782.28;;;31.59;29.38
19576;BME280;41589;51.196;7.074;2022-08-03T17:37:19;98783.97;;;31.53;29.37
19576;BME280;41589;51.196;7.074;2022-08-03T17:42:21;98786.88;;;31.53;29.34
19576;BME280;41589;51.196;7.074;2022-08-03T17:47:23;98783.25;;;31.43;29.46
19576;BME280;41589;51.196;7.074;2022-08-03T17:52:27;98777.63;;;31.35;29.48
19576;BME280;41589;51.196;7.074;2022-08-03T17:57:49;98778.97;;;31.34;29.67
19576;BME280;41589;51.196;7.074;2022-08-03T18:14:14;98781.22;;;31.55;29.72
19576;BME280;41589;51.196;7.074;2022-08-03T18:19:15;98777.75;;;31.78;29.71
19576;BME280;41589;51.196;7.074;2022-08-03T18:24:19;98776.63;;;32.14;28.74
19576;BME280;41589;51.196;7.074;2022-08-03T18:29:24;98779.38;;;32.43;28.35
19576;BME280;41589;51.196;7.074;2022-08-03T18:34:25;98782.56;;;31.95;28.76
19576;BME280;41589;51.196;7.074;2022-08-03T18:39:27;98788.13;;;31.50;28.53
19576;BME280;41589;51.196;7.074;2022-08-03T18:44:28;98781.34;;;31.07;29.51
19576;BME280;41589;51.196;7.074;2022-08-03T19:00:08;98784.13;;;30.47;30.67
19576;BME280;41589;51.196;7.074;2022-08-03T19:05:23;98789.31;;;30.38;30.59
19576;BME280;41589;51.196;7.074;2022-08-03T19:10:29;98781.63;;;30.04;31.22
19576;BME280;41589;51.196;7.074;2022-08-03T19:15:31;98783.72;;;29.94;31.01
19576;BME280;41589;51.196;7.074;2022-08-03T19:20:32;98789.69;;;29.96;31.75
19576;BME280;41589;51.196;7.074;2022-08-03T19:25:37;98798.72;;;29.64;31.29
19576;BME280;41589;51.196;7.074;2022-08-03T19:30:38;98809.66;;;29.55;31.38
19576;BME280;41589;51.196;7.074;2022-08-03T19:35:40;98802.06;;;29.60;31.75
19576;BME280;41589;51.196;7.074;2022-08-03T19:40:44;98796.31;;;29.70;31.38
19576;BME280;41589;51.196;7.074;2022-08-03T19:45:45;98803.63;;;29.71;31.46
19576;BME280;41589;51.196;7.074;2022-08-03T19:50:46;98806.72;;;29.46;31.60
19576;BME280;41589;51.196;7.074;2022-08-03T19:55:47;98803.75;;;29.36;31.19
19576;BME280;41589;51.196;7.074;2022-08-03T20:00:48;98794.31;;;29.36;31.83
19576;BME280;41589;51.196;7.074;2022-08-03T20:05:52;98795.25;;;29.38;31.43
19576;BME280;41589;51.196;7.074;2022-08-03T20:10:59;98797.00;;;29.24;31.56
19576;BME280;41589;51.196;7.074;2022-08-03T20:16:02;98791.81;;;29.05;31.83
19576;BME280;41589;51.196;7.074;2022-08-03T20:21:07;98787.91;;;29.10;32.03
19576;BME280;41589;51.196;7.074;2022-08-03T20:26:15;98797.72;;;28.97;31.95
19576;BME280;41589;51.196;7.074;2022-08-03T20:31:27;98787.00;;;28.90;32.49
19576;BME280;41589;51.196;7.074;2022-08-03T20:36:28;98800.66;;;28.80;32.73
19576;BME280;41589;51.196;7.074;2022-08-03T20:41:29;98794.88;;;28.80;32.68
19576;BME280;41589;51.196;7.074;2022-08-03T20:46:30;98790.88;;;28.76;32.75
19576;BME280;41589;51.196;7.074;2022-08-03T20:51:33;98794.19;;;28.72;32.95
19576;BME280;41589;51.196;7.074;2022-08-03T20:56:38;98798.44;;;28.71;32.93
19576;BME280;41589;51.196;7.074;2022-08-03T21:01:42;98790.53;;;28.71;33.45
19576;BME280;41589;51.196;7.074;2022-08-03T21:06:49;98798.44;;;28.54;33.77
19576;BME280;41589;51.196;7.074;2022-08-03T21:12:02;98779.53;;;28.18;34.53
19576;BME280;41589;51.196;7.074;2022-08-03T21:17:08;98778.94;;;28.20;34.62
19576;BME280;41589;51.196;7.074;2022-08-03T21:22:15;98776.22;;;28.22;34.48
19576;BME280;41589;51.196;7.074;2022-08-03T21:27:27;98779.97;;;28.14;34.88
19576;BME280;41589;51.196;7.074;2022-08-03T21:32:36;98778.66;;;28.08;34.54
19576;BME280;41589;51.196;7.074;2022-08-03T21:37:48;98768.16;;;27.95;35.18
19576;BME280;41589;51.196;7.074;2022-08-03T21:43:12;98775.47;;;27.96;35.29
19576;BME280;41589;51.196;7.074;2022-08-03T21:48:14;98774.72;;;27.96;34.94
19576;BME280;41589;51.196;7.074;2022-08-03T21:53:18;98768.09;;;28.03;35.28
19576;BME280;41589;51.196;7.074;2022-08-03T21:58:29;98769.63;;;28.04;35.32
19576;BME280;41589;51.196;7.074;2022-08-03T22:03:34;98769.31;;;28.17;34.97
19576;BME280;41589;51.196;7.074;2022-08-03T22:08:42;98767.78;;;28.16;34.97
19576;BME280;41589;51.196;7.074;2022-08-03T22:13:47;98772.28;;;28.09;34.93
19576;BME280;41589;51.196;7.074;2022-08-03T22:18:56;98758.72;;;27.95;35.66
19576;BME280;41589;51.196;7.074;2022-08-03T22:24:05;98768.75;;;27.94;35.71
19576;BME280;41589;51.196;7.074;2022-08-03T22:29:09;98775.53;;;27.88;36.05
19576;BME280;41589;51.196;7.074;2022-08-03T22:34:10;98760.16;;;27.86;36.00
19576;BME280;41589;51.196;7.074;2022-08-03T22:39:17;98763.97;;;27.88;36.41
19576;BME280;41589;51.196;7.074;2022-08-03T22:44:19;98769.91;;;27.73;36.81
19576;BME280;41589;51.196;7.074;2022-08-03T22:49:24;98772.25;;;27.67;36.65
19576;BME280;41589;51.196;7.074;2022-08-03T22:54:40;98770.13;;;27.68;36.80
19576;BME280;41589;51.196;7.074;2022-08-03T22:59:45;98764.97;;;27.66;37.33
19576;BME280;41589;51.196;7.074;2022-08-03T23:04:55;98768.63;;;27.67;36.95
19576;BME280;41589;51.196;7.074;2022-08-03T23:10:04;98751.59;;;27.46;37.53
19576;BME280;41589;51.196;7.074;2022-08-03T23:15:12;98759.00;;;27.39;37.46
19576;BME280;41589;51.196;7.074;2022-08-03T23:20:24;98765.25;;;27.53;37.91
19576;BME280;41589;51.196;7.074;2022-08-03T23:25:27;98759.94;;;27.42;38.06
19576;BME280;41589;51.196;7.074;2022-08-03T23:30:36;98757.69;;;27.32;38.31
19576;BME280;41589;51.196;7.074;2022-08-03T23:35:40;98754.97;;;27.35;38.34
19576;BME280;41589;51.196;7.074;2022-08-03T23:41:00;98760.88;;;27.44;38.32
19576;BME280;41589;51.196;7.074;2022-08-03T23:46:08;98751.34;;;27.26;38.55
